createdAt,value
2022-07-26T00:00:12.423Z,46.11
2022-07-26T00:02:47.410Z,46.68
2022-07-26T00:05:18.635Z,47.50
2022-07-26T00:07:47.012Z,45.95
2022-07-26T00:10:15.311Z,46.45
2022-07-26T00:12:42.577Z,46.21
2022-07-26T00:15:11.797Z,46.19
2022-07-26T00:17:41.054Z,46.01
2022-07-26T00:20:09.225Z,46.34
2022-07-26T00:22:36.556Z,46.20
2022-07-26T00:25:09.334Z,46.37
2022-07-26T00:27:37.457Z,46.90
2022-07-26T00:30:10.099Z,46.94
2022-07-26T00:32:38.059Z,46.33
2022-07-26T00:35:06.715Z,45.77
2022-07-26T00:37:34.467Z,45.91
2022-07-26T00:40:01.844Z,45.26
2022-07-26T00:42:29.342Z,44.79
2022-07-26T00:44:56.846Z,44.37
2022-07-26T00:47:24.130Z,44.56
2022-07-26T00:49:51.662Z,43.72
2022-07-26T00:52:18.889Z,44.09
2022-07-26T00:54:47.126Z,44.72
2022-07-26T00:57:15.365Z,45.85
2022-07-26T00:59:43.605Z,46.70
2022-07-26T01:02:11.208Z,46.42
2022-07-26T01:04:40.165Z,46.94
2022-07-26T01:07:14.795Z,47.59
2022-07-26T01:09:43.226Z,47.34
2022-07-26T01:12:11.156Z,48.18
2022-07-26T01:14:38.426Z,47.77
2022-07-26T01:17:05.531Z,48.93
2022-07-26T01:19:32.630Z,47.97
2022-07-26T01:21:59.779Z,47.38
2022-07-26T01:24:26.898Z,47.13
2022-07-26T01:26:55.687Z,47.98
2022-07-26T01:29:23.978Z,48.37
2022-07-26T01:32:04.083Z,47.86
2022-07-26T01:34:31.239Z,47.38
2022-07-26T01:36:58.533Z,47.05
2022-07-26T01:39:25.564Z,46.14
2022-07-26T01:41:53.417Z,45.60
2022-07-26T01:44:23.339Z,45.25
2022-07-26T01:46:50.582Z,45.15
2022-07-26T01:49:17.892Z,46.07
2022-07-26T01:51:45.627Z,46.16
2022-07-26T01:54:12.890Z,46.82
2022-07-26T01:56:40.210Z,46.03
2022-07-26T01:59:07.630Z,45.35
2022-07-26T02:01:38.864Z,45.13
2022-07-26T02:04:09.307Z,45.47
2022-07-26T02:06:37.356Z,45.84
2022-07-26T02:09:06.439Z,45.91
2022-07-26T02:11:34.745Z,45.29
2022-07-26T02:14:03.314Z,46.63
2022-07-26T02:16:30.337Z,46.04
2022-07-26T02:18:57.341Z,44.98
2022-07-26T02:21:24.304Z,45.90
2022-07-26T02:23:51.274Z,45.00
2022-07-26T02:26:18.311Z,44.66
2022-07-26T02:28:45.355Z,45.17
2022-07-26T02:31:12.650Z,45.80
2022-07-26T02:33:42.962Z,45.92
2022-07-26T02:36:09.965Z,45.38
2022-07-26T02:38:37.090Z,46.02
2022-07-26T02:41:06.440Z,45.66
2022-07-26T02:43:33.531Z,46.79
2022-07-26T02:46:01.797Z,46.02
2022-07-26T02:48:31.314Z,45.31
2022-07-26T02:50:58.388Z,46.00
2022-07-26T02:53:25.363Z,47.57
2022-07-26T02:55:52.388Z,47.35
2022-07-26T02:58:21.613Z,46.76
2022-07-26T03:00:48.811Z,46.44
2022-07-26T03:03:15.931Z,46.33
2022-07-26T03:05:43.178Z,46.50
2022-07-26T03:08:10.554Z,46.77
2022-07-26T03:10:37.549Z,46.81
2022-07-26T03:13:05.249Z,46.45
2022-07-26T03:15:32.321Z,46.80
2022-07-26T03:17:59.423Z,47.14
2022-07-26T03:20:26.724Z,47.24
2022-07-26T03:22:53.735Z,47.18
2022-07-26T03:25:20.869Z,48.04
2022-07-26T03:27:47.971Z,48.35
2022-07-26T03:30:15.447Z,48.54
2022-07-26T03:32:42.677Z,48.47
2022-07-26T03:35:09.836Z,48.84
2022-07-26T03:37:44.793Z,48.42
2022-07-26T03:40:15.819Z,48.50
2022-07-26T03:42:43.316Z,48.17
2022-07-26T03:45:11.991Z,48.54
2022-07-26T03:47:39.243Z,49.01
2022-07-26T03:50:07.714Z,49.93
2022-07-26T03:52:34.867Z,49.78
2022-07-26T03:55:21.947Z,50.82
2022-07-26T03:57:49.283Z,51.47
2022-07-26T04:00:16.652Z,51.59
2022-07-26T04:02:44.149Z,51.39
2022-07-26T04:05:11.386Z,52.68
2022-07-26T04:07:52.796Z,52.42
2022-07-26T04:10:21.656Z,53.19
2022-07-26T04:12:49.582Z,52.85
2022-07-26T04:15:18.889Z,52.79
2022-07-26T04:17:45.883Z,53.01
2022-07-26T04:20:12.968Z,53.62
2022-07-26T04:22:41.315Z,54.32
2022-07-26T04:25:09.803Z,54.59
2022-07-26T04:27:38.208Z,54.51
2022-07-26T04:30:12.370Z,55.54
2022-07-26T04:32:55.804Z,57.43
2022-07-26T04:35:22.901Z,57.57
2022-07-26T04:37:50.002Z,58.01
2022-07-26T04:40:22.019Z,58.86
2022-07-26T04:42:52.487Z,61.50
2022-07-26T04:45:20.457Z,59.62
2022-07-26T04:48:02.970Z,60.28
2022-07-26T04:50:30.096Z,60.33
2022-07-26T04:52:57.296Z,60.87
2022-07-26T04:55:24.752Z,61.06
2022-07-26T04:57:51.991Z,59.33
2022-07-26T05:00:24.257Z,59.67
2022-07-26T05:02:55.468Z,59.99
2022-07-26T05:05:24.799Z,60.76
2022-07-26T05:07:57.863Z,63.76
2022-07-26T05:10:35.292Z,63.17
2022-07-26T05:13:05.056Z,66.45
2022-07-26T05:15:35.245Z,65.95
2022-07-26T05:18:10.310Z,66.41
2022-07-26T05:20:38.488Z,65.81
2022-07-26T05:23:06.394Z,65.70
2022-07-26T05:25:33.583Z,64.94
2022-07-26T05:28:01.616Z,65.29
2022-07-26T05:30:28.751Z,66.08
2022-07-26T05:32:55.831Z,65.82
2022-07-26T05:35:22.888Z,67.18
2022-07-26T05:37:50.031Z,66.67
2022-07-26T05:40:17.130Z,68.11
2022-07-26T05:42:44.216Z,67.01
2022-07-26T05:45:11.516Z,66.68
2022-07-26T05:47:38.559Z,67.05
2022-07-26T05:50:10.078Z,66.66
2022-07-26T05:52:37.262Z,66.13
2022-07-26T05:55:04.888Z,66.17
2022-07-26T05:57:31.834Z,65.22
2022-07-26T05:59:58.880Z,65.58
2022-07-26T06:02:25.938Z,64.56
2022-07-26T06:04:53.045Z,64.35
2022-07-26T06:07:19.973Z,64.54
2022-07-26T06:09:47.044Z,64.77
2022-07-26T06:12:14.180Z,65.44
2022-07-26T06:14:41.284Z,65.53
2022-07-26T06:17:08.445Z,66.96
2022-07-26T06:19:35.593Z,67.92
2022-07-26T06:22:03.339Z,66.34
2022-07-26T06:24:30.424Z,65.05
2022-07-26T06:27:04.662Z,65.99
2022-07-26T06:29:32.995Z,66.55
2022-07-26T06:32:00.431Z,65.93
2022-07-26T06:34:27.484Z,66.02
2022-07-26T06:36:54.773Z,66.27
2022-07-26T06:39:21.763Z,64.51
2022-07-26T06:41:49.085Z,65.50
2022-07-26T06:44:16.410Z,65.82
2022-07-26T06:46:43.476Z,65.41
2022-07-26T06:49:10.500Z,64.87
2022-07-26T06:51:38.060Z,64.82
2022-07-26T06:54:05.805Z,63.71
2022-07-26T06:56:33.076Z,63.43
2022-07-26T06:59:00.123Z,63.43
2022-07-26T07:01:58.232Z,64.97
2022-07-26T07:04:14.035Z,66.20
2022-07-26T07:06:41.025Z,66.58
2022-07-26T07:09:09.065Z,66.55
2022-07-26T07:11:36.901Z,65.83
2022-07-26T07:14:05.385Z,65.86
2022-07-26T07:16:32.573Z,66.28
2022-07-26T07:18:59.563Z,67.38
2022-07-26T07:21:27.366Z,67.29
2022-07-26T07:23:54.397Z,65.35
2022-07-26T07:26:21.570Z,66.46
2022-07-26T07:28:48.747Z,66.41
2022-07-26T07:31:15.935Z,65.66
2022-07-26T07:33:52.809Z,65.73
2022-07-26T07:36:21.592Z,66.06
2022-07-26T07:38:50.276Z,65.26
2022-07-26T07:41:19.054Z,65.21
2022-07-26T07:43:46.296Z,64.42
2022-07-26T07:46:13.795Z,64.28
2022-07-26T07:48:52.747Z,64.57
2022-07-26T07:51:20.308Z,64.53
2022-07-26T07:53:56.291Z,63.01
2022-07-26T07:56:24.810Z,63.09
2022-07-26T07:58:52.438Z,63.62
2022-07-26T08:01:19.737Z,62.30
2022-07-26T08:03:50.390Z,61.06
2022-07-26T08:06:18.211Z,61.57
2022-07-26T08:08:48.629Z,61.43
2022-07-26T08:11:19.101Z,60.02
2022-07-26T08:13:49.430Z,60.95
2022-07-26T08:16:19.067Z,59.05
2022-07-26T08:18:56.896Z,58.12
2022-07-26T08:21:46.891Z,56.87
2022-07-26T08:24:17.110Z,57.10
2022-07-26T08:26:44.479Z,54.67
2022-07-26T08:29:11.962Z,55.49
2022-07-26T08:31:39.470Z,55.07
2022-07-26T08:34:06.629Z,55.33
2022-07-26T08:36:33.645Z,54.17
2022-07-26T08:39:01.655Z,52.94
2022-07-26T08:41:29.205Z,52.24
2022-07-26T08:44:04.253Z,52.85
2022-07-26T08:46:34.399Z,50.91
2022-07-26T08:49:01.453Z,52.07
2022-07-26T08:51:28.557Z,52.80
2022-07-26T08:54:06.053Z,51.61
2022-07-26T08:56:41.797Z,50.24
2022-07-26T08:59:20.669Z,51.57
2022-07-26T09:01:58.041Z,52.42
2022-07-26T09:04:46.426Z,51.42
2022-07-26T09:07:19.444Z,50.75
2022-07-26T09:10:05.208Z,50.50
2022-07-26T09:12:36.712Z,51.31
2022-07-26T09:15:08.484Z,50.86
2022-07-26T09:17:43.152Z,50.28
2022-07-26T09:20:18.516Z,49.95
2022-07-26T09:23:00.792Z,47.90
2022-07-26T09:25:31.182Z,47.23
2022-07-26T09:28:00.116Z,47.11
2022-07-26T09:30:30.332Z,46.39
2022-07-26T09:33:07.030Z,46.83
2022-07-26T09:35:51.307Z,46.52
2022-07-26T09:38:19.355Z,46.99
2022-07-26T09:40:50.492Z,47.98
2022-07-26T09:43:19.898Z,46.55
2022-07-26T09:46:07.528Z,46.81
2022-07-26T09:49:09.540Z,47.78
2022-07-26T09:51:39.939Z,46.17
2022-07-26T09:54:09.468Z,46.61
2022-07-26T09:56:51.494Z,47.23
2022-07-26T09:59:22.163Z,43.80
2022-07-26T10:01:53.952Z,42.90
2022-07-26T10:04:22.833Z,40.41
2022-07-26T10:06:50.513Z,40.15
2022-07-26T10:09:25.033Z,42.00
2022-07-26T10:12:08.909Z,40.75
2022-07-26T10:14:41.362Z,40.93
2022-07-26T10:17:29.266Z,38.43
2022-07-26T10:20:17.105Z,40.21
2022-07-26T10:22:50.620Z,38.48
2022-07-26T10:25:17.682Z,39.05
2022-07-26T10:27:54.485Z,41.54
2022-07-26T10:30:28.850Z,41.72
2022-07-26T10:33:09.638Z,42.53
2022-07-26T10:35:42.411Z,42.30
2022-07-26T10:38:26.074Z,41.26
2022-07-26T10:41:02.574Z,40.67
2022-07-26T10:43:40.697Z,40.39
2022-07-26T10:46:20.702Z,39.14
2022-07-26T10:49:08.978Z,38.47
2022-07-26T10:51:41.226Z,38.83
2022-07-26T10:54:12.173Z,37.66
2022-07-26T10:56:40.665Z,37.70
2022-07-26T10:59:08.323Z,37.85
2022-07-26T11:01:40.438Z,38.23
2022-07-26T11:04:21.532Z,39.20
2022-07-26T11:06:49.426Z,39.60
2022-07-26T11:09:18.908Z,40.13
2022-07-26T11:11:48.537Z,40.96
2022-07-26T11:14:18.071Z,41.66
2022-07-26T11:16:49.987Z,41.07
2022-07-26T11:19:25.922Z,40.44
2022-07-26T11:21:59.072Z,41.05
2022-07-26T11:24:27.154Z,40.31
2022-07-26T11:26:54.545Z,40.28
2022-07-26T11:29:38.779Z,40.49
2022-07-26T11:32:23.630Z,41.04
2022-07-26T11:35:02.969Z,41.39
2022-07-26T11:37:30.195Z,42.27
2022-07-26T11:39:57.635Z,41.69
2022-07-26T11:42:25.032Z,43.67
2022-07-26T11:44:54.067Z,44.03
2022-07-26T11:47:24.205Z,43.68
2022-07-26T11:52:40.996Z,44.04
2022-07-26T11:55:09.265Z,44.26
2022-07-26T11:57:36.425Z,43.19
2022-07-26T12:00:05.526Z,43.70
2022-07-26T12:02:32.587Z,43.56
2022-07-26T12:05:19.894Z,43.18
2022-07-26T12:08:05.162Z,42.86
2022-07-26T12:10:32.818Z,43.28
2022-07-26T12:13:16.261Z,42.56
2022-07-26T12:15:50.273Z,42.56
2022-07-26T12:18:31.511Z,43.62
2022-07-26T12:21:07.556Z,43.49
2022-07-26T12:23:48.641Z,44.51
2022-07-26T12:26:24.634Z,44.47
2022-07-26T12:28:52.277Z,44.95
2022-07-26T12:31:24.147Z,44.34
2022-07-26T12:33:51.253Z,44.39
2022-07-26T12:36:27.143Z,43.84
2022-07-26T12:38:59.510Z,42.88
2022-07-26T12:41:38.534Z,41.52
2022-07-26T12:44:08.449Z,39.70
2022-07-26T12:46:36.652Z,38.96
2022-07-26T12:49:05.115Z,39.10
2022-07-26T12:51:32.617Z,39.42
2022-07-26T12:53:59.823Z,38.94
2022-07-26T12:56:26.907Z,38.16
2022-07-26T12:58:54.386Z,38.29
2022-07-26T13:01:21.814Z,39.00
2022-07-26T13:03:49.072Z,39.34
2022-07-26T13:06:16.101Z,39.16
2022-07-26T13:08:43.120Z,40.24
2022-07-26T13:11:10.722Z,40.21
2022-07-26T13:13:37.966Z,40.75
2022-07-26T13:16:11.152Z,40.86
2022-07-26T13:18:39.010Z,40.60
2022-07-26T13:21:06.295Z,41.34
2022-07-26T13:23:35.026Z,41.71
2022-07-26T13:26:04.333Z,41.68
2022-07-26T13:28:36.244Z,40.87
2022-07-26T13:31:03.368Z,39.90
2022-07-26T13:33:30.504Z,40.17
2022-07-26T13:35:58.634Z,37.99
2022-07-26T13:38:25.683Z,34.34
2022-07-26T13:40:53.358Z,34.98
2022-07-26T13:43:20.334Z,34.21
2022-07-26T13:45:47.525Z,34.27
2022-07-26T13:48:17.478Z,35.59
2022-07-26T13:50:44.569Z,35.63
2022-07-26T13:53:11.639Z,35.26
2022-07-26T13:55:38.640Z,35.22
2022-07-26T13:58:09.985Z,36.22
2022-07-26T14:00:38.080Z,36.26
2022-07-26T14:03:05.275Z,36.38
2022-07-26T14:05:32.497Z,36.16
2022-07-26T14:07:59.798Z,36.37
2022-07-26T14:10:27.267Z,36.56
2022-07-26T14:12:56.997Z,36.83
2022-07-26T14:15:27.614Z,37.31
2022-07-26T14:17:55.491Z,37.63
2022-07-26T14:20:22.841Z,37.61
2022-07-26T14:22:53.906Z,38.49
2022-07-26T14:25:24.471Z,38.46
2022-07-26T14:27:53.424Z,38.11
2022-07-26T14:30:22.262Z,37.52
2022-07-26T14:32:54.157Z,36.24
2022-07-26T14:35:21.838Z,36.83
2022-07-26T14:37:49.116Z,37.74
2022-07-26T14:40:19.308Z,37.35
2022-07-26T14:42:47.358Z,38.27
2022-07-26T14:45:16.001Z,37.75
2022-07-26T14:47:44.076Z,37.57
2022-07-26T14:50:14.272Z,37.50
2022-07-26T14:52:47.511Z,37.65
2022-07-26T14:55:22.982Z,36.78
2022-07-26T14:57:55.928Z,36.31
2022-07-26T15:00:23.167Z,35.95
2022-07-26T15:02:50.863Z,36.06
2022-07-26T15:05:18.585Z,35.35
2022-07-26T15:07:48.366Z,36.73
2022-07-26T15:10:16.308Z,35.96
2022-07-26T15:12:46.846Z,36.76
2022-07-26T15:15:13.901Z,36.48
2022-07-26T15:17:41.731Z,37.64
2022-07-26T15:20:15.217Z,37.06
2022-07-26T15:22:42.740Z,37.86
2022-07-26T15:25:09.969Z,37.06
2022-07-26T15:27:37.099Z,37.13
2022-07-26T15:30:10.232Z,37.33
2022-07-26T15:32:44.739Z,37.46
2022-07-26T15:35:14.880Z,36.74
2022-07-26T15:37:48.078Z,36.93
2022-07-26T15:40:15.128Z,37.49
2022-07-26T15:42:45.749Z,36.89
2022-07-26T15:45:13.581Z,37.34
2022-07-26T15:47:54.928Z,37.48
2022-07-26T15:50:25.590Z,37.49
2022-07-26T15:52:53.690Z,38.12
2022-07-26T15:55:26.501Z,37.96
2022-07-26T15:57:53.719Z,36.92
2022-07-26T16:00:22.963Z,36.77
2022-07-26T16:02:50.936Z,36.22
2022-07-26T16:05:18.180Z,36.26
2022-07-26T16:07:46.155Z,36.11
2022-07-26T16:10:14.949Z,36.50
2022-07-26T16:12:43.284Z,37.48
2022-07-26T16:15:11.997Z,37.28
2022-07-26T16:17:39.389Z,36.54
2022-07-26T16:20:08.365Z,36.41
2022-07-26T16:22:35.519Z,36.14
2022-07-26T16:25:02.739Z,36.58
2022-07-26T16:27:29.855Z,37.11
2022-07-26T16:29:57.095Z,37.70
2022-07-26T16:32:26.366Z,37.44
2022-07-26T16:34:53.415Z,37.54
2022-07-26T16:37:23.691Z,37.51
2022-07-26T16:39:50.753Z,37.61
2022-07-26T16:42:17.994Z,37.82
2022-07-26T16:44:45.108Z,38.13
2022-07-26T16:47:12.485Z,38.74
2022-07-26T16:49:39.907Z,38.58
2022-07-26T16:52:07.677Z,38.87
2022-07-26T16:54:36.838Z,38.93
2022-07-26T16:57:03.974Z,38.71
2022-07-26T16:59:30.966Z,38.84
2022-07-26T17:02:01.586Z,39.25
2022-07-26T17:04:30.036Z,39.32
2022-07-26T17:07:23.254Z,39.70
2022-07-26T17:09:43.936Z,38.75
2022-07-26T17:12:10.927Z,39.27
2022-07-26T17:14:37.937Z,39.21
2022-07-26T17:17:05.003Z,39.69
2022-07-26T17:19:32.006Z,42.21
2022-07-26T17:21:59.077Z,44.32
2022-07-26T17:24:26.105Z,45.08
2022-07-26T17:26:53.509Z,46.11
2022-07-26T17:29:20.577Z,46.98
2022-07-26T17:31:47.608Z,46.89
2022-07-26T17:34:14.576Z,47.56
2022-07-26T17:36:43.020Z,47.35
2022-07-26T17:39:14.968Z,48.36
2022-07-26T17:41:47.443Z,48.06
2022-07-26T17:44:15.079Z,48.55
2022-07-26T17:46:42.599Z,48.67
2022-07-26T17:49:10.100Z,48.05
2022-07-26T17:51:37.770Z,48.82
2022-07-26T17:54:05.211Z,49.24
2022-07-26T17:56:32.459Z,49.60
2022-07-26T17:58:59.556Z,49.67
2022-07-26T18:01:27.023Z,49.94
2022-07-26T18:03:54.301Z,50.54
2022-07-26T18:06:21.467Z,51.28
2022-07-26T18:08:48.491Z,50.72
2022-07-26T18:11:15.483Z,50.96
2022-07-26T18:13:42.497Z,51.14
2022-07-26T18:16:09.459Z,51.35
2022-07-26T18:18:36.522Z,51.73
2022-07-26T18:21:04.655Z,51.48
2022-07-26T18:23:31.721Z,51.78
2022-07-26T18:25:59.171Z,51.50
2022-07-26T18:28:26.298Z,52.07
2022-07-26T18:30:53.533Z,51.88
2022-07-26T18:33:20.592Z,52.24
2022-07-26T18:35:47.670Z,52.04
2022-07-26T18:38:15.265Z,52.14
2022-07-26T18:40:42.318Z,52.30
2022-07-26T18:43:09.865Z,52.63
2022-07-26T18:45:37.000Z,53.11
2022-07-26T18:48:04.676Z,53.92
2022-07-26T18:50:33.898Z,53.64
2022-07-26T18:53:02.223Z,53.98
2022-07-26T18:55:29.224Z,54.06
2022-07-26T18:57:56.353Z,53.78
2022-07-26T19:00:25.105Z,53.83
2022-07-26T19:02:54.089Z,53.61
2022-07-26T19:05:22.865Z,54.36
2022-07-26T19:07:50.713Z,54.82
2022-07-26T19:10:18.390Z,55.19
2022-07-26T19:12:45.520Z,54.34
2022-07-26T19:15:16.591Z,55.69
2022-07-26T19:17:44.610Z,55.34
2022-07-26T19:20:14.987Z,55.81
2022-07-26T19:22:44.390Z,55.41
2022-07-26T19:25:16.194Z,55.52
2022-07-26T19:27:43.822Z,55.62
2022-07-26T19:30:12.199Z,55.39
2022-07-26T19:32:41.072Z,56.25
2022-07-26T19:35:09.133Z,56.18
2022-07-26T19:37:45.790Z,56.40
2022-07-26T19:40:13.807Z,56.35
2022-07-26T19:42:42.148Z,56.70
2022-07-26T19:45:09.828Z,57.57
2022-07-26T19:47:37.431Z,57.71
2022-07-26T19:50:08.047Z,57.07
2022-07-26T19:52:35.542Z,56.87
2022-07-26T19:55:02.602Z,57.36
2022-07-26T19:57:29.783Z,56.61
2022-07-26T19:59:56.931Z,57.73
2022-07-26T20:02:23.950Z,56.83
2022-07-26T20:04:52.051Z,55.80
2022-07-26T20:07:19.787Z,54.71
2022-07-26T20:09:49.364Z,54.19
2022-07-26T20:12:17.449Z,52.81
2022-07-26T20:14:45.295Z,52.73
2022-07-26T20:17:13.165Z,52.08
2022-07-26T20:19:40.940Z,51.35
2022-07-26T20:22:08.118Z,52.00
2022-07-26T20:24:35.451Z,52.32
2022-07-26T20:27:02.436Z,52.05
2022-07-26T20:29:29.455Z,52.14
2022-07-26T20:31:56.459Z,51.69
2022-07-26T20:34:23.415Z,51.86
2022-07-26T20:36:50.446Z,51.64
2022-07-26T20:39:17.480Z,51.28
2022-07-26T20:41:44.544Z,51.94
2022-07-26T20:44:12.657Z,51.79
2022-07-26T20:46:41.895Z,52.13
2022-07-26T20:49:10.442Z,51.60
2022-07-26T20:51:38.755Z,51.81
2022-07-26T20:54:06.619Z,51.98
2022-07-26T20:56:34.001Z,52.09
2022-07-26T20:59:02.315Z,52.37
2022-07-26T21:01:31.424Z,52.65
2022-07-26T21:03:59.515Z,52.72
2022-07-26T21:06:27.397Z,52.99
2022-07-26T21:08:57.766Z,53.17
2022-07-26T21:11:25.065Z,53.29
2022-07-26T21:13:53.096Z,53.67
2022-07-26T21:16:20.257Z,53.28
2022-07-26T21:18:52.400Z,52.99
2022-07-26T21:21:21.797Z,53.67
2022-07-26T21:23:49.413Z,53.71
2022-07-26T21:26:16.400Z,53.73
2022-07-26T21:28:43.474Z,54.03
2022-07-26T21:31:10.541Z,54.00
2022-07-26T21:33:37.569Z,54.16
2022-07-26T21:36:04.763Z,53.99
2022-07-26T21:38:33.809Z,54.71
2022-07-26T21:41:00.846Z,54.57
2022-07-26T21:43:27.861Z,54.74
2022-07-26T21:49:11.011Z,55.43
2022-07-26T21:51:38.149Z,55.91
2022-07-26T21:54:05.175Z,56.03
2022-07-26T21:56:32.200Z,55.87
2022-07-26T21:59:00.125Z,56.65
2022-07-26T22:01:27.246Z,57.29
2022-07-26T22:03:54.292Z,56.78
2022-07-26T22:06:21.502Z,58.03
2022-07-26T22:08:48.712Z,57.82
2022-07-26T22:11:15.779Z,57.16
2022-07-26T22:13:43.452Z,57.42
2022-07-26T22:16:11.030Z,58.01
2022-07-26T22:18:38.157Z,58.30
2022-07-26T22:21:05.224Z,58.72
2022-07-26T22:23:32.708Z,58.79
2022-07-26T22:26:04.484Z,59.18
2022-07-26T22:28:33.560Z,59.41
2022-07-26T22:31:01.298Z,59.62
2022-07-26T22:33:28.283Z,59.75
2022-07-26T22:35:55.768Z,59.98
2022-07-26T22:38:25.909Z,60.15
2022-07-26T22:40:53.395Z,60.29
2022-07-26T22:43:20.414Z,61.04
2022-07-26T22:45:47.537Z,62.46
2022-07-26T22:48:14.583Z,61.51
2022-07-26T22:50:41.720Z,61.63
2022-07-26T22:53:08.803Z,62.18
2022-07-26T22:55:35.897Z,62.56
2022-07-26T22:58:03.081Z,62.33
2022-07-26T23:00:30.628Z,62.28
2022-07-26T23:02:57.607Z,62.32
2022-07-26T23:05:27.615Z,62.02
2022-07-26T23:08:36.647Z,62.01
2022-07-26T23:10:58.819Z,61.90
2022-07-26T23:13:26.071Z,62.47
2022-07-26T23:15:58.115Z,63.36
2022-07-26T23:18:41.910Z,62.59
2022-07-26T23:21:08.865Z,62.67
2022-07-26T23:23:35.924Z,63.58
2022-07-26T23:26:03.024Z,63.00
2022-07-26T23:28:37.093Z,63.10
2022-07-26T23:31:12.663Z,64.63
2022-07-26T23:33:52.633Z,64.21
2022-07-26T23:36:26.692Z,64.22
2022-07-26T23:38:58.753Z,64.41
2022-07-26T23:41:27.345Z,64.41
2022-07-26T23:43:55.542Z,63.90
2022-07-26T23:46:23.834Z,65.39
2022-07-26T23:48:51.981Z,63.89
2022-07-26T23:51:19.708Z,65.38
2022-07-26T23:53:56.063Z,65.23
2022-07-26T23:56:23.573Z,64.16
2022-07-26T23:58:51.119Z,64.40
